BAW370 YSSY-YBBN
Flight info
| Callsign | BAW370 |
|---|---|
| Flight time | 1h 19m |
| Altitude | 36000 |
| Route | KADOM DCT IGDAM J70 BANDA H252 GOMOL |
| Aircraft | B77W/H-SDE1E2E3FGHIJ2J3J4J5M1RWXY/LB1D1 |
Departure
| Time | 2026-05-01 12:39 |
|---|---|
| Airport | Sydney Kingsford Smith International Airport (YSSY) |
Arrival
| Time | 2026-05-01 13:58 |
|---|---|
| Airport | Brisbane International Airport (YBBN) |
| Time | Latitude | Longitude | Altitude | Speed | Heading |
|---|---|---|---|---|---|
| 2026-05-01 11:50 | -33.93922 | 151.16990 | 31 ft | 0 kts | 253° |
| 2026-05-01 12:24 | -33.93919 | 151.17001 | 29 ft | 2 kts | 253° |
| 2026-05-01 12:24 | -33.93913 | 151.17019 | 31 ft | 2 kts | 237° |
| 2026-05-01 12:24 | -33.93905 | 151.17034 | 31 ft | 2 kts | 237° |
| 2026-05-01 12:24 | -33.93898 | 151.17046 | 31 ft | 2 kts | 238° |
| 2026-05-01 12:25 | -33.93891 | 151.17057 | 31 ft | 2 kts | 222° |
| 2026-05-01 12:25 | -33.93870 | 151.17070 | 31 ft | 2 kts | 173° |
| 2026-05-01 12:25 | -33.93868 | 151.17071 | 31 ft | 2 kts | 159° |
| 2026-05-01 12:26 | -33.93871 | 151.17072 | 31 ft | 1 kts | 159° |
| 2026-05-01 12:26 | -33.93873 | 151.17073 | 31 ft | 0 kts | 159° |
| 2026-05-01 12:27 | -33.93874 | 151.17073 | 31 ft | 1 kts | 160° |
| 2026-05-01 12:27 | -33.93880 | 151.17076 | 31 ft | 0 kts | 161° |
| 2026-05-01 12:28 | -33.93926 | 151.17090 | 30 ft | 5 kts | 164° |
| 2026-05-01 12:28 | -33.93959 | 151.17110 | 28 ft | 6 kts | 140° |
| 2026-05-01 12:28 | -33.93974 | 151.17185 | 28 ft | 0 kts | 86° |
| 2026-05-01 12:30 | -33.93974 | 151.17186 | 28 ft | 1 kts | 86° |
| 2026-05-01 12:30 | -33.93973 | 151.17196 | 27 ft | 2 kts | 84° |
| 2026-05-01 12:30 | -33.93971 | 151.17219 | 25 ft | 4 kts | 81° |
| 2026-05-01 12:31 | -33.93960 | 151.17277 | 26 ft | 17 kts | 77° |
| 2026-05-01 12:31 | -33.93925 | 151.17431 | 26 ft | 16 kts | 72° |
| 2026-05-01 12:31 | -33.93901 | 151.17529 | 27 ft | 9 kts | 73° |
| 2026-05-01 12:31 | -33.93888 | 151.17582 | 25 ft | 2 kts | 73° |
| 2026-05-01 12:32 | -33.93879 | 151.17620 | 25 ft | 14 kts | 74° |
| 2026-05-01 12:32 | -33.93879 | 151.17751 | 27 ft | 10 kts | 126° |
| 2026-05-01 12:32 | -33.93938 | 151.17787 | 27 ft | 8 kts | 164° |
| 2026-05-01 12:33 | -33.93977 | 151.17799 | 27 ft | 5 kts | 167° |
| 2026-05-01 12:33 | -33.94025 | 151.17812 | 28 ft | 16 kts | 168° |
| 2026-05-01 12:33 | -33.94159 | 151.17845 | 29 ft | 16 kts | 167° |
| 2026-05-01 12:33 | -33.94262 | 151.17873 | 29 ft | 13 kts | 168° |
| 2026-05-01 12:34 | -33.94339 | 151.17893 | 29 ft | 11 kts | 168° |
| 2026-05-01 12:34 | -33.94413 | 151.17909 | 29 ft | 11 kts | 177° |
| 2026-05-01 12:34 | -33.94489 | 151.17891 | 28 ft | 11 kts | 190° |
| 2026-05-01 12:34 | -33.94568 | 151.17897 | 29 ft | 11 kts | 171° |
| 2026-05-01 12:35 | -33.94652 | 151.17917 | 28 ft | 13 kts | 168° |
| 2026-05-01 12:35 | -33.94746 | 151.17940 | 27 ft | 14 kts | 168° |
| 2026-05-01 12:35 | -33.94846 | 151.17967 | 29 ft | 15 kts | 167° |
| 2026-05-01 12:35 | -33.94948 | 151.17994 | 27 ft | 15 kts | 168° |
| 2026-05-01 12:36 | -33.95028 | 151.18014 | 30 ft | 0 kts | 168° |
| 2026-05-01 12:36 | -33.95039 | 151.18017 | 31 ft | 11 kts | 165° |
| 2026-05-01 12:36 | -33.95094 | 151.18081 | 31 ft | 0 kts | 101° |
| 2026-05-01 12:36 | -33.95095 | 151.18090 | 31 ft | 7 kts | 97° |
| 2026-05-01 12:37 | -33.95090 | 151.18165 | 30 ft | 10 kts | 81° |
| 2026-05-01 12:37 | -33.95077 | 151.18250 | 29 ft | 11 kts | 78° |
| 2026-05-01 12:37 | -33.95061 | 151.18337 | 30 ft | 11 kts | 78° |
| 2026-05-01 12:37 | -33.95046 | 151.18423 | 31 ft | 11 kts | 78° |
| 2026-05-01 12:38 | -33.95030 | 151.18510 | 31 ft | 11 kts | 78° |
| 2026-05-01 12:38 | -33.95015 | 151.18598 | 31 ft | 12 kts | 78° |
| 2026-05-01 12:38 | -33.94998 | 151.18695 | 29 ft | 12 kts | 78° |
| 2026-05-01 12:38 | -33.95000 | 151.18798 | 28 ft | 13 kts | 114° |
| 2026-05-01 12:39 | -33.95072 | 151.18859 | 28 ft | 13 kts | 165° |
| 2026-05-01 12:39 | -33.95300 | 151.18916 | 27 ft | 77 kts | 170° |
| 2026-05-01 12:39 | -33.96235 | 151.19164 | 111 ft | 190 kts | 169° |
| 2026-05-01 12:39 | -33.97621 | 151.19564 | 1261 ft | 225 kts | 160° |
| 2026-05-01 12:40 | -33.99003 | 151.20636 | 2520 ft | 244 kts | 129° |
| 2026-05-01 12:40 | -33.99963 | 151.22338 | 3732 ft | 248 kts | 116° |
| 2026-05-01 12:40 | -34.00782 | 151.24224 | 4578 ft | 258 kts | 115° |
| 2026-05-01 12:40 | -34.01899 | 151.25919 | 4989 ft | 270 kts | 138° |
| 2026-05-01 12:41 | -34.03454 | 151.27275 | 5003 ft | 279 kts | 141° |
| 2026-05-01 12:41 | -34.04992 | 151.28679 | 5002 ft | 276 kts | 139° |
| 2026-05-01 12:41 | -34.06485 | 151.30112 | 4993 ft | 273 kts | 138° |
| 2026-05-01 12:41 | -34.07957 | 151.31546 | 4990 ft | 271 kts | 138° |
| 2026-05-01 12:42 | -34.09425 | 151.32982 | 4989 ft | 272 kts | 138° |
| 2026-05-01 12:42 | -34.10870 | 151.34438 | 4973 ft | 267 kts | 131° |
| 2026-05-01 12:42 | -34.11807 | 151.36333 | 5001 ft | 266 kts | 101° |
| 2026-05-01 12:42 | -34.11843 | 151.38525 | 5001 ft | 262 kts | 74° |
| 2026-05-01 12:43 | -34.11126 | 151.40505 | 4997 ft | 255 kts | 52° |
| 2026-05-01 12:43 | -34.09967 | 151.42105 | 5002 ft | 253 kts | 46° |
| 2026-05-01 12:43 | -34.08774 | 151.43669 | 4993 ft | 253 kts | 47° |
| 2026-05-01 12:43 | -34.07588 | 151.45238 | 4994 ft | 254 kts | 46° |
| 2026-05-01 12:44 | -34.06332 | 151.46701 | 4983 ft | 250 kts | 33° |
| 2026-05-01 12:44 | -34.04723 | 151.47504 | 5001 ft | 254 kts | 16° |
| 2026-05-01 12:44 | -34.01275 | 151.48608 | 4999 ft | 256 kts | 16° |
| 2026-05-01 12:45 | -33.97854 | 151.49722 | 4991 ft | 254 kts | 16° |
| 2026-05-01 12:45 | -33.96154 | 151.50278 | 4983 ft | 253 kts | 16° |
| 2026-05-01 12:45 | -33.94456 | 151.50833 | 4984 ft | 253 kts | 16° |
| 2026-05-01 12:46 | -33.92760 | 151.51387 | 4994 ft | 252 kts | 17° |
| 2026-05-01 12:46 | -33.91065 | 151.51942 | 5231 ft | 252 kts | 16° |
| 2026-05-01 12:46 | -33.89383 | 151.52493 | 6296 ft | 252 kts | 16° |
| 2026-05-01 12:46 | -33.87668 | 151.53053 | 7332 ft | 258 kts | 16° |
| 2026-05-01 12:47 | -33.85913 | 151.53626 | 8327 ft | 265 kts | 16° |
| 2026-05-01 12:47 | -33.84142 | 151.54204 | 9377 ft | 268 kts | 15° |
| 2026-05-01 12:47 | -33.82300 | 151.54805 | 10436 ft | 274 kts | 15° |
| 2026-05-01 12:47 | -33.80445 | 151.55409 | 11180 ft | 288 kts | 15° |
| 2026-05-01 12:48 | -33.78404 | 151.56074 | 11491 ft | 319 kts | 15° |
| 2026-05-01 12:48 | -33.76157 | 151.56807 | 11734 ft | 351 kts | 15° |
| 2026-05-01 12:48 | -33.73726 | 151.57599 | 12376 ft | 367 kts | 15° |
| 2026-05-01 12:48 | -33.71230 | 151.58410 | 13274 ft | 377 kts | 16° |
| 2026-05-01 12:49 | -33.68677 | 151.59240 | 14218 ft | 385 kts | 15° |
| 2026-05-01 12:49 | -33.66063 | 151.60091 | 15043 ft | 393 kts | 16° |
| 2026-05-01 12:49 | -33.63506 | 151.61282 | 15950 ft | 397 kts | 30° |
| 2026-05-01 12:49 | -33.61207 | 151.63142 | 16909 ft | 400 kts | 36° |
| 2026-05-01 12:50 | -33.58918 | 151.65098 | 17741 ft | 408 kts | 36° |
| 2026-05-01 12:50 | -33.56561 | 151.67028 | 18635 ft | 413 kts | 34° |
| 2026-05-01 12:50 | -33.54161 | 151.68935 | 19424 ft | 418 kts | 34° |
| 2026-05-01 12:50 | -33.51682 | 151.70826 | 20080 ft | 426 kts | 30° |
| 2026-05-01 12:51 | -33.49015 | 151.72414 | 20872 ft | 428 kts | 24° |
| 2026-05-01 12:51 | -33.46233 | 151.73699 | 21375 ft | 432 kts | 18° |
| 2026-05-01 12:51 | -33.40345 | 151.75530 | 21371 ft | 438 kts | 14° |
| 2026-05-01 12:52 | -33.37393 | 151.76436 | 21366 ft | 437 kts | 15° |
| 2026-05-01 12:52 | -33.31533 | 151.78309 | 21362 ft | 436 kts | 15° |
| 2026-05-01 12:52 | -33.28611 | 151.79257 | 21364 ft | 436 kts | 15° |
| 2026-05-01 12:53 | -33.22755 | 151.81158 | 21365 ft | 436 kts | 15° |
| 2026-05-01 12:53 | -33.19825 | 151.82107 | 21366 ft | 437 kts | 15° |
| 2026-05-01 12:53 | -33.16891 | 151.83054 | 21366 ft | 437 kts | 15° |
| 2026-05-01 12:54 | -33.13956 | 151.84000 | 21362 ft | 437 kts | 15° |
| 2026-05-01 12:54 | -33.08076 | 151.85892 | 21358 ft | 438 kts | 15° |
| 2026-05-01 12:54 | -33.05132 | 151.86836 | 21411 ft | 440 kts | 15° |
| 2026-05-01 12:55 | -32.99169 | 151.88749 | 22939 ft | 447 kts | 15° |
| 2026-05-01 12:55 | -32.96149 | 151.89717 | 23694 ft | 451 kts | 15° |
| 2026-05-01 12:55 | -32.93097 | 151.90695 | 24289 ft | 457 kts | 14° |
| 2026-05-01 12:56 | -32.90011 | 151.91683 | 24888 ft | 461 kts | 15° |
| 2026-05-01 12:56 | -32.86937 | 151.92666 | 25497 ft | 465 kts | 15° |
| 2026-05-01 12:56 | -32.83750 | 151.93685 | 26057 ft | 471 kts | 15° |
| 2026-05-01 12:56 | -32.80612 | 151.94688 | 26587 ft | 476 kts | 15° |
| 2026-05-01 12:57 | -32.77404 | 151.95712 | 27200 ft | 478 kts | 15° |
| 2026-05-01 12:57 | -32.70924 | 151.97777 | 28317 ft | 486 kts | 15° |
| 2026-05-01 12:57 | -32.67648 | 151.98820 | 28813 ft | 490 kts | 15° |
| 2026-05-01 12:58 | -32.64339 | 151.99873 | 29328 ft | 493 kts | 15° |
| 2026-05-01 12:58 | -32.61021 | 152.00928 | 29813 ft | 496 kts | 15° |
| 2026-05-01 12:58 | -32.57677 | 152.01991 | 30275 ft | 498 kts | 15° |
| 2026-05-01 12:59 | -32.50980 | 152.04115 | 31259 ft | 499 kts | 14° |
| 2026-05-01 12:59 | -32.47626 | 152.05177 | 31693 ft | 499 kts | 14° |
| 2026-05-01 12:59 | -32.40921 | 152.07300 | 32677 ft | 498 kts | 14° |
| 2026-05-01 13:00 | -32.34223 | 152.09417 | 33554 ft | 499 kts | 14° |
| 2026-05-01 13:00 | -32.30875 | 152.10475 | 34005 ft | 499 kts | 14° |
| 2026-05-01 13:01 | -32.24175 | 152.12589 | 34820 ft | 498 kts | 13° |
| 2026-05-01 13:01 | -32.20823 | 152.13645 | 35115 ft | 500 kts | 13° |
| 2026-05-01 13:02 | -32.19348 | 152.14110 | 35229 ft | 501 kts | 13° |
| 2026-05-01 13:07 | -31.67511 | 152.30332 | 35362 ft | 506 kts | 13° |
| 2026-05-01 13:07 | -31.64147 | 152.31378 | 35361 ft | 506 kts | 13° |
| 2026-05-01 13:08 | -31.57328 | 152.33497 | 35364 ft | 507 kts | 13° |
| 2026-05-01 13:08 | -31.50505 | 152.35613 | 35354 ft | 507 kts | 13° |
| 2026-05-01 13:09 | -31.43655 | 152.37735 | 35367 ft | 508 kts | 13° |
| 2026-05-01 13:09 | -31.36844 | 152.39842 | 35371 ft | 508 kts | 13° |
| 2026-05-01 13:10 | -31.29997 | 152.41955 | 35357 ft | 509 kts | 13° |
| 2026-05-01 13:10 | -31.23143 | 152.44069 | 35364 ft | 509 kts | 13° |
| 2026-05-01 13:11 | -31.16292 | 152.46178 | 35362 ft | 510 kts | 13° |
| 2026-05-01 13:11 | -31.09422 | 152.48289 | 35356 ft | 510 kts | 13° |
| 2026-05-01 13:12 | -31.02585 | 152.50390 | 35349 ft | 511 kts | 13° |
| 2026-05-01 13:12 | -30.95695 | 152.52502 | 35354 ft | 512 kts | 13° |
| 2026-05-01 13:13 | -30.89918 | 152.54270 | 35362 ft | 512 kts | 13° |
| 2026-05-01 13:13 | -30.83198 | 152.56324 | 35349 ft | 512 kts | 13° |
| 2026-05-01 13:14 | -30.77182 | 152.58206 | 35344 ft | 512 kts | 15° |
| 2026-05-01 13:14 | -30.70387 | 152.60678 | 35355 ft | 512 kts | 16° |
| 2026-05-01 13:15 | -30.63653 | 152.63214 | 35354 ft | 512 kts | 16° |
| 2026-05-01 13:15 | -30.58880 | 152.64978 | 35341 ft | 512 kts | 15° |
| 2026-05-01 13:16 | -30.52076 | 152.67452 | 35343 ft | 513 kts | 15° |
| 2026-05-01 13:16 | -30.45251 | 152.69913 | 35353 ft | 514 kts | 15° |
| 2026-05-01 13:17 | -30.31589 | 152.74843 | 35349 ft | 513 kts | 15° |
| 2026-05-01 13:18 | -30.21373 | 152.78522 | 35345 ft | 516 kts | 15° |
| 2026-05-01 13:18 | -30.14517 | 152.80987 | 35331 ft | 514 kts | 15° |
| 2026-05-01 13:19 | -30.11126 | 152.82206 | 35012 ft | 509 kts | 15° |
| 2026-05-01 13:19 | -30.07756 | 152.83417 | 34516 ft | 505 kts | 16° |
| 2026-05-01 13:19 | -30.01096 | 152.85803 | 33354 ft | 497 kts | 16° |
| 2026-05-01 13:20 | -29.97798 | 152.86983 | 32816 ft | 493 kts | 16° |
| 2026-05-01 13:20 | -29.94532 | 152.88152 | 32295 ft | 488 kts | 16° |
| 2026-05-01 13:20 | -29.91301 | 152.89308 | 31799 ft | 484 kts | 16° |
| 2026-05-01 13:21 | -29.84925 | 152.91575 | 31040 ft | 471 kts | 16° |
| 2026-05-01 13:21 | -29.81831 | 152.92672 | 30886 ft | 459 kts | 16° |
| 2026-05-01 13:21 | -29.78850 | 152.93728 | 30721 ft | 449 kts | 16° |
| 2026-05-01 13:21 | -29.75894 | 152.94774 | 30498 ft | 440 kts | 16° |
| 2026-05-01 13:22 | -29.72981 | 152.95805 | 30122 ft | 436 kts | 16° |
| 2026-05-01 13:22 | -29.70091 | 152.96826 | 29635 ft | 433 kts | 16° |
| 2026-05-01 13:22 | -29.67219 | 152.97841 | 29139 ft | 431 kts | 16° |
| 2026-05-01 13:22 | -29.64353 | 152.98853 | 28673 ft | 429 kts | 16° |
| 2026-05-01 13:23 | -29.61519 | 152.99853 | 28275 ft | 425 kts | 16° |
| 2026-05-01 13:23 | -29.58701 | 153.00848 | 27891 ft | 421 kts | 16° |
| 2026-05-01 13:23 | -29.55907 | 153.01833 | 27503 ft | 417 kts | 16° |
| 2026-05-01 13:23 | -29.53138 | 153.02809 | 27113 ft | 414 kts | 17° |
| 2026-05-01 13:24 | -29.50397 | 153.03775 | 26725 ft | 411 kts | 17° |
| 2026-05-01 13:24 | -29.47671 | 153.04735 | 26338 ft | 408 kts | 17° |
| 2026-05-01 13:24 | -29.44957 | 153.05690 | 25965 ft | 405 kts | 17° |
| 2026-05-01 13:25 | -29.39611 | 153.07570 | 25251 ft | 399 kts | 17° |
| 2026-05-01 13:25 | -29.36964 | 153.08499 | 24903 ft | 396 kts | 17° |
| 2026-05-01 13:25 | -29.34374 | 153.09409 | 24566 ft | 393 kts | 17° |
| 2026-05-01 13:25 | -29.31770 | 153.10323 | 24228 ft | 390 kts | 17° |
| 2026-05-01 13:26 | -29.29182 | 153.11231 | 23880 ft | 387 kts | 18° |
| 2026-05-01 13:26 | -29.26613 | 153.12134 | 23488 ft | 384 kts | 18° |
| 2026-05-01 13:26 | -29.24062 | 153.13032 | 23099 ft | 382 kts | 18° |
| 2026-05-01 13:26 | -29.21527 | 153.13927 | 22681 ft | 380 kts | 18° |
| 2026-05-01 13:27 | -29.19006 | 153.14815 | 22280 ft | 378 kts | 18° |
| 2026-05-01 13:27 | -29.16496 | 153.15699 | 21907 ft | 375 kts | 18° |
| 2026-05-01 13:27 | -29.11537 | 153.17444 | 21188 ft | 370 kts | 18° |
| 2026-05-01 13:28 | -29.06669 | 153.19154 | 20475 ft | 366 kts | 18° |
| 2026-05-01 13:28 | -29.04240 | 153.20007 | 20128 ft | 364 kts | 18° |
| 2026-05-01 13:29 | -28.99429 | 153.21696 | 19451 ft | 359 kts | 18° |
| 2026-05-01 13:29 | -28.94674 | 153.23362 | 18798 ft | 355 kts | 17° |
| 2026-05-01 13:30 | -28.85368 | 153.26619 | 17410 ft | 346 kts | 18° |
| 2026-05-01 13:31 | -28.80793 | 153.28217 | 16735 ft | 341 kts | 18° |
| 2026-05-01 13:31 | -28.74045 | 153.30574 | 15794 ft | 334 kts | 18° |
| 2026-05-01 13:32 | -28.69618 | 153.32116 | 15146 ft | 331 kts | 19° |
| 2026-05-01 13:33 | -28.63512 | 153.34244 | 14316 ft | 325 kts | 19° |
| 2026-05-01 13:33 | -28.59205 | 153.35743 | 13682 ft | 321 kts | 19° |
| 2026-05-01 13:34 | -28.55121 | 153.37164 | 13087 ft | 318 kts | 19° |
| 2026-05-01 13:34 | -28.50912 | 153.38625 | 12434 ft | 314 kts | 19° |
| 2026-05-01 13:35 | -28.46929 | 153.40008 | 11862 ft | 311 kts | 20° |
| 2026-05-01 13:35 | -28.44865 | 153.40722 | 11591 ft | 309 kts | 21° |
| 2026-05-01 13:35 | -28.40789 | 153.42137 | 10990 ft | 305 kts | 20° |
| 2026-05-01 13:36 | -28.38789 | 153.42831 | 10701 ft | 304 kts | 21° |
| 2026-05-01 13:36 | -28.36779 | 153.43528 | 10433 ft | 301 kts | 20° |
| 2026-05-01 13:36 | -28.32814 | 153.44899 | 10285 ft | 300 kts | 20° |
| 2026-05-01 13:37 | -28.30798 | 153.45599 | 10281 ft | 304 kts | 20° |
| 2026-05-01 13:37 | -28.28766 | 153.46302 | 10274 ft | 306 kts | 20° |
| 2026-05-01 13:37 | -28.26737 | 153.47003 | 10265 ft | 304 kts | 20° |
| 2026-05-01 13:37 | -28.24720 | 153.47701 | 10264 ft | 303 kts | 20° |
| 2026-05-01 13:38 | -28.20700 | 153.49087 | 10080 ft | 297 kts | 21° |
| 2026-05-01 13:38 | -28.18748 | 153.49754 | 9985 ft | 287 kts | 19° |
| 2026-05-01 13:38 | -28.16781 | 153.50018 | 9740 ft | 285 kts | 1° |
| 2026-05-01 13:39 | -28.14806 | 153.49705 | 9340 ft | 289 kts | 348° |
| 2026-05-01 13:39 | -28.12900 | 153.48973 | 9057 ft | 288 kts | 342° |
| 2026-05-01 13:39 | -28.11036 | 153.48144 | 8717 ft | 288 kts | 342° |
| 2026-05-01 13:39 | -28.09175 | 153.47308 | 8400 ft | 287 kts | 341° |
| 2026-05-01 13:40 | -28.07335 | 153.46492 | 8308 ft | 278 kts | 342° |
| 2026-05-01 13:40 | -28.05532 | 153.45708 | 8261 ft | 279 kts | 343° |
| 2026-05-01 13:40 | -28.03723 | 153.44934 | 8271 ft | 285 kts | 343° |
| 2026-05-01 13:40 | -28.01846 | 153.44139 | 8265 ft | 289 kts | 342° |
| 2026-05-01 13:41 | -27.99963 | 153.43344 | 8258 ft | 288 kts | 343° |
| 2026-05-01 13:41 | -27.98087 | 153.42556 | 8249 ft | 287 kts | 343° |
| 2026-05-01 13:41 | -27.96222 | 153.41776 | 8248 ft | 285 kts | 343° |
| 2026-05-01 13:41 | -27.94357 | 153.40998 | 8238 ft | 284 kts | 343° |
| 2026-05-01 13:42 | -27.92505 | 153.40225 | 8242 ft | 282 kts | 343° |
| 2026-05-01 13:42 | -27.90664 | 153.39458 | 8241 ft | 281 kts | 343° |
| 2026-05-01 13:42 | -27.88848 | 153.38702 | 8239 ft | 281 kts | 343° |
| 2026-05-01 13:42 | -27.86991 | 153.37929 | 8236 ft | 281 kts | 343° |
| 2026-05-01 13:43 | -27.85152 | 153.37164 | 8248 ft | 282 kts | 343° |
| 2026-05-01 13:43 | -27.83312 | 153.36399 | 8245 ft | 283 kts | 343° |
| 2026-05-01 13:43 | -27.81484 | 153.35639 | 8251 ft | 284 kts | 343° |
| 2026-05-01 13:43 | -27.79627 | 153.34868 | 8249 ft | 285 kts | 343° |
| 2026-05-01 13:44 | -27.77765 | 153.34102 | 8241 ft | 283 kts | 346° |
| 2026-05-01 13:44 | -27.75859 | 153.33809 | 8238 ft | 273 kts | 11° |
| 2026-05-01 13:44 | -27.74048 | 153.34322 | 8247 ft | 267 kts | 26° |
| 2026-05-01 13:44 | -27.72344 | 153.35158 | 8243 ft | 268 kts | 29° |
| 2026-05-01 13:45 | -27.70644 | 153.36043 | 8243 ft | 270 kts | 29° |
| 2026-05-01 13:45 | -27.68930 | 153.36918 | 8248 ft | 271 kts | 28° |
| 2026-05-01 13:45 | -27.67199 | 153.37784 | 8232 ft | 272 kts | 28° |
| 2026-05-01 13:45 | -27.65464 | 153.38645 | 8230 ft | 272 kts | 28° |
| 2026-05-01 13:46 | -27.63713 | 153.39438 | 8206 ft | 269 kts | 18° |
| 2026-05-01 13:46 | -27.61860 | 153.39652 | 8241 ft | 274 kts | 6° |
| 2026-05-01 13:46 | -27.59952 | 153.39703 | 8232 ft | 275 kts | 6° |
| 2026-05-01 13:46 | -27.58042 | 153.39764 | 8178 ft | 274 kts | 6° |
| 2026-05-01 13:47 | -27.56131 | 153.39833 | 7972 ft | 274 kts | 6° |
| 2026-05-01 13:47 | -27.54222 | 153.39908 | 7709 ft | 273 kts | 6° |
| 2026-05-01 13:47 | -27.52325 | 153.39987 | 7386 ft | 273 kts | 7° |
| 2026-05-01 13:47 | -27.50423 | 153.40070 | 7062 ft | 273 kts | 7° |
| 2026-05-01 13:48 | -27.48543 | 153.40153 | 6810 ft | 273 kts | 7° |
| 2026-05-01 13:48 | -27.46635 | 153.40240 | 6715 ft | 279 kts | 7° |
| 2026-05-01 13:48 | -27.44577 | 153.40340 | 6772 ft | 317 kts | 6° |
| 2026-05-01 13:48 | -27.42237 | 153.40451 | 6802 ft | 338 kts | 6° |
| 2026-05-01 13:49 | -27.39933 | 153.40548 | 6707 ft | 326 kts | 6° |
| 2026-05-01 13:49 | -27.37725 | 153.40642 | 6596 ft | 306 kts | 6° |
| 2026-05-01 13:49 | -27.35668 | 153.40730 | 6379 ft | 285 kts | 7° |
| 2026-05-01 13:49 | -27.33728 | 153.40817 | 6011 ft | 273 kts | 7° |
| 2026-05-01 13:50 | -27.31848 | 153.40905 | 5518 ft | 268 kts | 7° |
| 2026-05-01 13:50 | -27.29964 | 153.40995 | 5304 ft | 275 kts | 7° |
| 2026-05-01 13:50 | -27.28068 | 153.41085 | 5235 ft | 276 kts | 7° |
| 2026-05-01 13:50 | -27.26167 | 153.41171 | 5230 ft | 270 kts | 7° |
| 2026-05-01 13:51 | -27.24307 | 153.41255 | 5216 ft | 265 kts | 7° |
| 2026-05-01 13:51 | -27.22455 | 153.41339 | 5220 ft | 265 kts | 7° |
| 2026-05-01 13:51 | -27.20621 | 153.41406 | 5216 ft | 267 kts | 2° |
| 2026-05-01 13:51 | -27.18836 | 153.40816 | 5215 ft | 276 kts | 329° |
| 2026-05-01 13:52 | -27.17334 | 153.39446 | 5230 ft | 282 kts | 321° |
| 2026-05-01 13:52 | -27.15824 | 153.38008 | 5232 ft | 285 kts | 322° |
| 2026-05-01 13:52 | -27.14336 | 153.36558 | 5198 ft | 281 kts | 314° |
| 2026-05-01 13:52 | -27.13371 | 153.34681 | 5218 ft | 279 kts | 283° |
| 2026-05-01 13:53 | -27.13309 | 153.32531 | 5235 ft | 276 kts | 256° |
| 2026-05-01 13:53 | -27.14775 | 153.28576 | 5238 ft | 277 kts | 240° |
| 2026-05-01 13:53 | -27.15650 | 153.26647 | 5213 ft | 273 kts | 232° |
| 2026-05-01 13:54 | -27.16962 | 153.25181 | 5100 ft | 263 kts | 207° |
| 2026-05-01 13:54 | -27.18565 | 153.24232 | 4820 ft | 259 kts | 201° |
| 2026-05-01 13:54 | -27.20175 | 153.23322 | 4539 ft | 258 kts | 201° |
| 2026-05-01 13:54 | -27.21769 | 153.22411 | 4241 ft | 257 kts | 201° |
| 2026-05-01 13:55 | -27.23338 | 153.21513 | 4154 ft | 247 kts | 201° |
| 2026-05-01 13:55 | -27.24826 | 153.20661 | 4041 ft | 232 kts | 201° |
| 2026-05-01 13:55 | -27.26166 | 153.19892 | 3925 ft | 203 kts | 200° |
| 2026-05-01 13:55 | -27.27350 | 153.19213 | 3577 ft | 183 kts | 198° |
| 2026-05-01 13:56 | -27.28450 | 153.18587 | 3213 ft | 172 kts | 199° |
| 2026-05-01 13:56 | -27.29515 | 153.17981 | 2865 ft | 172 kts | 199° |
| 2026-05-01 13:56 | -27.30572 | 153.17377 | 2499 ft | 170 kts | 199° |
| 2026-05-01 13:56 | -27.31621 | 153.16774 | 1986 ft | 169 kts | 199° |
| 2026-05-01 13:57 | -27.32659 | 153.16128 | 1778 ft | 171 kts | 202° |
| 2026-05-01 13:57 | -27.33371 | 153.15761 | 1651 ft | 172 kts | 195° |
| 2026-05-01 13:57 | -27.34780 | 153.14919 | 1049 ft | 177 kts | 206° |
| 2026-05-01 13:57 | -27.35850 | 153.14369 | 640 ft | 158 kts | 205° |
| 2026-05-01 13:58 | -27.36840 | 153.13801 | 224 ft | 162 kts | 206° |
| 2026-05-01 13:58 | -27.37818 | 153.13236 | 33 ft | 158 kts | 207° |
| 2026-05-01 13:58 | -27.38641 | 153.12759 | 26 ft | 79 kts | 207° |
| 2026-05-01 13:58 | -27.38890 | 153.12593 | 27 ft | 38 kts | 219° |